Time;durP1;ratioP1;P1;durP2;ratioP2;P2;SDS_P1;SDS_P2;PMS_P1;PMS_P2;Temp;Humidity;BMP_temperature;BMP_pressure;BME280_temperature;BME280_humidity;BME280_pressure;Samples;Min_cycle;Max_cycle;Signal;HPM_P1;HPM_P2
2022/12/15 00:38:44;;;;;;;33.53;21.93;;;-1.10;99.90;;;;;;5033460;28;20693;-66
2022/12/15 00:41:14;;;;;;;34.30;22.57;;;-1.20;99.90;;;;;;5033380;28;20209;-66
2022/12/15 00:43:41;;;;;;;42.37;25.67;;;-1.20;99.90;;;;;;5033074;28;20190;-66
2022/12/15 00:48:53;;;;;;;33.07;21.47;;;-1.20;99.90;;;;;;5053151;28;20188;-65
2022/12/15 00:51:19;;;;;;;27.67;18.00;;;-1.20;99.90;;;;;;5033788;28;20198;-65
2022/12/15 01:21:18;;;;;;;43.43;22.73;;;-1.10;99.90;;;;;;5018368;28;20617;-68
2022/12/15 01:23:44;;;;;;;33.00;18.83;;;-1.10;99.90;;;;;;5032758;28;20213;-67
2022/12/15 01:26:11;;;;;;;25.93;14.70;;;-1.10;99.90;;;;;;5031940;28;20210;-65
2022/12/15 01:28:39;;;;;;;26.63;16.17;;;-1.10;99.90;;;;;;5032524;28;20209;-67
2022/12/15 01:31:11;;;;;;;27.30;16.03;;;-1.10;99.90;;;;;;5029329;28;20206;-65
2022/12/15 01:33:38;;;;;;;31.10;18.30;;;-1.00;99.90;;;;;;5031332;28;20256;-65
2022/12/15 01:36:05;;;;;;;32.43;19.50;;;-1.00;99.90;;;;;;5032016;28;20216;-65
2022/12/15 01:38:32;;;;;;;26.63;16.67;;;-1.00;99.90;;;;;;5032150;28;20276;-66
2022/12/15 01:41:01;;;;;;;20.70;13.53;;;-1.00;99.90;;;;;;5029528;28;20562;-66
2022/12/15 01:43:31;;;;;;;22.50;15.73;;;-1.00;99.90;;;;;;5032094;28;20259;-65
2022/12/15 01:46:02;;;;;;;23.10;14.20;;;-1.10;99.90;;;;;;5032107;28;20564;-65
2022/12/15 01:48:34;;;;;;;24.00;15.50;;;-1.10;99.90;;;;;;5032252;28;20201;-65
2022/12/15 01:51:09;;;;;;;22.03;14.07;;;-1.10;99.90;;;;;;5031314;28;20202;-66
2022/12/15 01:53:48;;;;;;;23.93;13.90;;;-1.10;99.90;;;;;;5031912;28;20232;-66
2022/12/15 01:56:15;;;;;;;19.50;13.30;;;-1.10;99.90;;;;;;5025085;28;20201;-67
2022/12/15 01:58:45;;;;;;;19.90;13.20;;;-1.10;99.90;;;;;;5030315;28;20226;-67
2022/12/15 02:01:13;;;;;;;21.77;14.50;;;-1.10;99.90;;;;;;5032169;28;20317;-68
2022/12/15 02:03:42;;;;;;;22.47;14.50;;;-1.20;99.90;;;;;;5031949;28;20209;-68
2022/12/15 02:06:11;;;;;;;23.33;13.77;;;-1.30;99.90;;;;;;5031546;28;20213;-67
2022/12/15 06:06:01;;;;;;;35.47;21.10;;;-2.20;99.90;;;;;;5088951;27;20607;-64
2022/12/15 06:08:29;;;;;;;34.40;19.67;;;-1.50;99.90;;;;;;5088895;28;20302;-65
2022/12/15 06:10:56;;;;;;;31.63;18.97;;;-1.40;99.90;;;;;;5088034;28;20230;-66
2022/12/15 06:13:23;;;;;;;30.43;18.10;;;-1.40;99.90;;;;;;5086877;28;20223;-64
2022/12/15 06:15:57;;;;;;;28.93;17.60;;;-1.40;99.90;;;;;;5083766;28;20209;-66
2022/12/15 06:18:25;;;;;;;31.80;18.90;;;-1.30;99.90;;;;;;5084121;28;20238;-65
2022/12/15 06:20:58;;;;;;;39.27;21.43;;;-1.30;99.90;;;;;;5086805;28;20208;-65
2022/12/15 06:23:27;;;;;;;49.20;24.50;;;-1.20;99.90;;;;;;5088529;28;20610;-65
2022/12/15 06:25:54;;;;;;;57.00;26.13;;;-1.20;99.90;;;;;;5081187;28;20205;-65
2022/12/15 06:28:22;;;;;;;46.67;23.20;;;-1.10;99.90;;;;;;5086421;28;20200;-66
2022/12/15 06:30:51;;;;;;;46.90;24.07;;;-1.10;99.90;;;;;;5068349;28;20726;-65
2022/12/15 06:33:18;;;;;;;45.27;23.90;;;-1.10;99.90;;;;;;5086122;28;20205;-66
2022/12/15 06:35:45;;;;;;;48.17;23.23;;;-1.10;99.90;;;;;;5088380;28;20204;-65
2022/12/15 06:38:12;;;;;;;39.37;21.73;;;-1.00;99.90;;;;;;5088435;28;20195;-66
2022/12/15 06:40:41;;;;;;;41.47;22.80;;;-1.00;99.90;;;;;;5087445;28;20222;-65
2022/12/15 06:43:08;;;;;;;36.00;20.73;;;-1.00;99.90;;;;;;5087153;28;20212;-67
2022/12/15 06:45:35;;;;;;;30.20;19.70;;;-0.90;99.90;;;;;;5087810;28;20220;-65
2022/12/15 06:48:02;;;;;;;32.00;20.93;;;-0.90;99.90;;;;;;5086091;28;20212;-66
2022/12/15 06:50:28;;;;;;;31.23;19.20;;;-0.90;99.90;;;;;;5087087;28;20204;-67
2022/12/15 06:52:56;;;;;;;31.73;18.70;;;-0.90;99.90;;;;;;5088354;28;20726;-67
2022/12/15 06:55:22;;;;;;;36.03;19.00;;;-0.80;99.90;;;;;;5087934;28;20705;-66
2022/12/15 06:57:50;;;;;;;30.33;18.73;;;-0.80;99.90;;;;;;5086760;28;20208;-65
2022/12/15 07:00:18;;;;;;;28.57;17.30;;;-0.80;99.90;;;;;;5075447;28;20235;-66
2022/12/15 07:02:45;;;;;;;33.20;19.23;;;-0.80;99.90;;;;;;5066567;28;20308;-66
2022/12/15 07:05:12;;;;;;;34.27;19.13;;;-0.80;99.90;;;;;;5063252;28;20325;-66
2022/12/15 07:07:39;;;;;;;29.90;17.43;;;-0.70;99.90;;;;;;5057942;28;20220;-66
2022/12/15 07:10:06;;;;;;;37.87;21.00;;;-0.80;99.90;;;;;;5067640;28;20276;-68
2022/12/15 07:12:33;;;;;;;33.57;18.67;;;-0.70;99.90;;;;;;5054031;28;20205;-67
2022/12/15 07:15:01;;;;;;;28.47;17.87;;;-0.70;99.90;;;;;;5067342;28;20251;-66
2022/12/15 07:17:28;;;;;;;28.83;17.20;;;-0.60;99.90;;;;;;5052614;28;20554;-65
2022/12/15 07:19:55;;;;;;;28.43;17.37;;;-0.60;99.90;;;;;;5053815;28;20220;-67
2022/12/15 07:22:22;;;;;;;24.23;16.63;;;-0.60;99.90;;;;;;5072430;28;20204;-66
2022/12/15 07:24:49;;;;;;;29.17;17.77;;;-0.60;99.90;;;;;;5074112;28;20229;-67
2022/12/15 07:27:16;;;;;;;30.40;18.33;;;-0.60;99.90;;;;;;5073862;28;20211;-66
2022/12/15 07:29:43;;;;;;;39.53;20.83;;;-0.50;99.90;;;;;;5073720;28;20200;-67
2022/12/15 07:32:12;;;;;;;38.33;20.43;;;-0.50;99.90;;;;;;5052358;28;20198;-65
2022/12/15 07:34:38;;;;;;;32.20;19.43;;;-0.50;99.90;;;;;;5033618;28;20216;-66
2022/12/15 07:37:05;;;;;;;38.50;22.33;;;-0.40;99.90;;;;;;5043404;28;20617;-66
2022/12/15 07:39:32;;;;;;;28.73;17.27;;;-0.40;99.90;;;;;;5057561;28;20215;-65
2022/12/15 07:41:59;;;;;;;33.10;19.90;;;-0.40;99.90;;;;;;5072581;28;20209;-66
2022/12/15 07:44:26;;;;;;;37.50;20.93;;;-0.30;99.90;;;;;;5073201;28;20220;-66
2022/12/15 07:46:53;;;;;;;34.53;19.87;;;-0.30;99.90;;;;;;5073634;28;20210;-67
2022/12/15 07:49:21;;;;;;;27.27;17.27;;;-0.30;99.90;;;;;;5069157;28;20207;-68
2022/12/15 07:51:48;;;;;;;28.37;18.30;;;-0.20;99.90;;;;;;5052633;28;20201;-66
2022/12/15 07:54:15;;;;;;;30.97;20.17;;;-0.20;99.90;;;;;;5052517;28;20206;-66
2022/12/15 07:56:42;;;;;;;30.57;20.30;;;-0.20;99.90;;;;;;5072559;28;20209;-64
2022/12/15 07:59:09;;;;;;;33.53;21.10;;;-0.10;99.90;;;;;;5073510;28;20585;-66
2022/12/15 08:01:36;;;;;;;31.07;20.80;;;-0.10;99.90;;;;;;5073107;28;20204;-66
2022/12/15 08:04:02;;;;;;;35.17;22.07;;;0.00;99.90;;;;;;5073066;28;20228;-66
2022/12/15 08:06:30;;;;;;;27.67;18.43;;;0.00;99.90;;;;;;5054108;28;20401;-66
2022/12/15 08:08:57;;;;;;;27.33;17.17;;;0.00;99.90;;;;;;5053096;28;20225;-67
2022/12/15 08:11:24;;;;;;;22.57;15.37;;;0.00;99.90;;;;;;5052232;28;20201;-66
2022/12/15 08:13:51;;;;;;;26.30;17.70;;;0.10;99.90;;;;;;5053242;28;20232;-67
2022/12/15 08:16:18;;;;;;;25.97;16.57;;;0.10;99.90;;;;;;5052135;28;20208;-66
2022/12/15 08:18:45;;;;;;;24.27;15.73;;;0.10;99.90;;;;;;5071074;28;20231;-66
2022/12/15 08:21:13;;;;;;;24.30;15.43;;;0.10;99.90;;;;;;5072626;28;20287;-66
2022/12/15 08:23:41;;;;;;;22.70;15.13;;;0.10;99.90;;;;;;5073006;28;20205;-67
2022/12/15 08:26:10;;;;;;;23.60;15.73;;;0.10;99.90;;;;;;5069418;28;20232;-66
2022/12/15 08:28:38;;;;;;;23.63;15.17;;;0.20;99.90;;;;;;5067961;28;20219;-66
2022/12/15 08:50:48;;;;;;;21.23;14.07;;;0.10;99.90;;;;;;5076910;28;20636;-66
2022/12/15 08:53:15;;;;;;;21.17;14.03;;;0.50;99.90;;;;;;5067827;28;20672;-66
2022/12/15 08:55:41;;;;;;;20.73;13.90;;;0.50;99.90;;;;;;5068967;28;20569;-66
2022/12/15 08:58:09;;;;;;;20.90;13.70;;;0.50;99.90;;;;;;5069024;28;20292;-65
2022/12/15 09:00:35;;;;;;;20.20;13.73;;;0.60;99.90;;;;;;5067402;28;20259;-66
2022/12/15 09:03:02;;;;;;;20.87;13.80;;;0.60;99.90;;;;;;5068765;28;20205;-66
2022/12/15 09:05:29;;;;;;;20.23;13.93;;;0.60;99.90;;;;;;5068425;28;20204;-67
2022/12/15 09:07:58;;;;;;;18.10;12.73;;;0.60;99.90;;;;;;5068711;28;20205;-65
2022/12/15 09:10:25;;;;;;;18.53;13.17;;;0.70;99.90;;;;;;5067214;28;20792;-67
2022/12/15 09:12:52;;;;;;;19.30;13.70;;;0.70;99.90;;;;;;5068393;28;20295;-66
2022/12/15 09:15:19;;;;;;;18.17;12.80;;;0.60;99.90;;;;;;5066125;28;20201;-68
2022/12/15 09:17:46;;;;;;;17.30;12.83;;;0.60;99.90;;;;;;5068453;28;20205;-66
2022/12/15 09:20:14;;;;;;;17.80;12.67;;;0.60;99.90;;;;;;5068288;28;20607;-65
2022/12/15 09:22:41;;;;;;;19.17;13.63;;;0.60;99.90;;;;;;5067301;28;20205;-67
2022/12/15 09:25:10;;;;;;;19.57;13.27;;;0.60;99.90;;;;;;5068187;28;20667;-67
2022/12/15 09:27:37;;;;;;;17.13;12.97;;;0.70;99.90;;;;;;5068197;28;20288;-68
2022/12/15 09:30:05;;;;;;;18.80;13.73;;;0.70;99.90;;;;;;5068201;28;20224;-66
2022/12/15 09:32:32;;;;;;;19.20;13.03;;;0.70;99.90;;;;;;5067698;28;20212;-67
2022/12/15 09:34:58;;;;;;;18.83;13.30;;;0.70;99.90;;;;;;5068161;28;20208;-68
2022/12/15 09:37:25;;;;;;;18.30;13.30;;;0.70;99.90;;;;;;5068216;28;20215;-67
2022/12/15 09:39:52;;;;;;;19.43;13.13;;;0.70;99.90;;;;;;5060527;28;20701;-66
2022/12/15 09:42:25;;;;;;;18.37;13.10;;;0.70;99.90;;;;;;5047492;28;20202;-66
2022/12/15 09:45:00;;;;;;;18.80;11.67;;;0.70;99.90;;;;;;5047979;28;20190;-67
2022/12/15 09:47:37;;;;;;;17.77;12.60;;;0.70;99.90;;;;;;5067594;28;20690;-67
2022/12/15 09:50:09;;;;;;;18.97;13.60;;;0.70;99.90;;;;;;5062013;28;20561;-67
2022/12/15 09:52:45;;;;;;;19.90;13.53;;;0.80;99.90;;;;;;5054776;28;20196;-65
2022/12/15 09:55:20;;;;;;;19.27;13.63;;;0.80;99.90;;;;;;5041910;28;20247;-66
2022/12/15 09:57:52;;;;;;;20.90;13.97;;;0.80;99.90;;;;;;5044211;28;20201;-66
2022/12/15 10:00:23;;;;;;;19.33;13.53;;;0.80;99.90;;;;;;5050611;28;20602;-67
2022/12/15 10:03:14;;;;;;;19.53;13.43;;;0.80;99.90;;;;;;5050935;28;20222;-67
2022/12/15 10:06:07;;;;;;;19.47;13.03;;;0.90;99.90;;;;;;5048105;28;20217;-64
2022/12/15 14:28:14;;;;;;;39.10;27.70;;;0.80;99.90;;;;;;5427684;23;20679;31
2022/12/15 14:30:42;;;;;;;40.50;25.60;;;0.80;99.90;;;;;;4952093;28;20459;-69
2022/12/15 14:33:15;;;;;;;37.70;25.83;;;0.90;99.90;;;;;;4950522;29;20571;-71
2022/12/15 14:35:45;;;;;;;36.17;24.77;;;1.00;99.90;;;;;;4954401;28;20224;-69
2022/12/15 14:38:16;;;;;;;39.90;27.10;;;1.10;99.90;;;;;;4951027;29;20201;-68
2022/12/15 14:40:47;;;;;;;39.30;26.07;;;1.20;99.90;;;;;;4954343;28;20696;-70
2022/12/15 14:43:19;;;;;;;35.33;25.03;;;1.20;99.90;;;;;;4963564;28;20200;-68
2022/12/15 14:45:51;;;;;;;37.83;23.67;;;1.30;99.90;;;;;;4950603;29;20227;-69
2022/12/15 14:48:27;;;;;;;33.83;23.70;;;1.30;99.90;;;;;;4955843;28;20204;-67
2022/12/15 14:50:54;;;;;;;35.37;24.47;;;1.40;99.90;;;;;;4951017;29;20204;-66
2022/12/15 14:53:22;;;;;;;34.30;23.43;;;1.50;99.90;;;;;;4950823;29;20223;-68
2022/12/15 14:55:49;;;;;;;35.27;24.30;;;1.50;99.90;;;;;;4950988;29;20203;-68
2022/12/15 14:58:29;;;;;;;31.17;21.57;;;1.60;99.90;;;;;;4950780;29;20208;-69
2022/12/15 15:00:58;;;;;;;31.83;21.57;;;1.60;99.90;;;;;;4956837;28;20204;-71
2022/12/15 15:03:35;;;;;;;31.63;21.63;;;1.60;99.90;;;;;;4969383;28;20208;-70
2022/12/15 15:06:06;;;;;;;30.93;21.67;;;1.60;99.90;;;;;;4947442;28;20217;-69
2022/12/15 15:08:34;;;;;;;32.43;21.20;;;1.60;99.90;;;;;;4950223;28;20205;-68
2022/12/15 15:11:18;;;;;;;33.73;22.30;;;1.60;99.90;;;;;;4931166;29;20213;-70
2022/12/15 15:13:45;;;;;;;33.17;21.47;;;1.70;99.90;;;;;;4940365;29;20197;-69
2022/12/15 15:16:17;;;;;;;33.40;21.73;;;1.70;99.90;;;;;;4950245;29;20209;-69
2022/12/15 15:18:48;;;;;;;30.53;21.37;;;1.70;99.90;;;;;;4950513;29;20209;-69
2022/12/15 15:21:17;;;;;;;35.97;23.43;;;1.70;99.90;;;;;;4950130;29;20197;-69
2022/12/15 15:23:57;;;;;;;37.70;23.77;;;1.80;99.90;;;;;;4951149;28;20205;-70
2022/12/15 15:26:26;;;;;;;31.63;22.03;;;1.80;99.90;;;;;;4952520;28;20217;-69
2022/12/15 15:28:53;;;;;;;34.63;22.67;;;1.80;99.90;;;;;;4967732;28;20580;-69
2022/12/15 15:31:31;;;;;;;35.80;23.17;;;1.80;99.90;;;;;;4952282;28;20212;-70
2022/12/15 15:33:58;;;;;;;34.93;22.70;;;1.80;99.90;;;;;;4945571;28;20219;-70
2022/12/15 15:36:31;;;;;;;35.53;22.83;;;1.80;99.90;;;;;;4951351;28;20562;-70
2022/12/15 15:38:58;;;;;;;34.63;23.30;;;1.80;99.90;;;;;;4937699;29;20308;-69
2022/12/15 15:41:28;;;;;;;35.77;22.97;;;1.80;99.90;;;;;;4927031;29;20210;-69
2022/12/15 15:43:57;;;;;;;34.67;23.67;;;1.80;99.90;;;;;;4934983;29;20228;-70
2022/12/15 15:46:28;;;;;;;36.10;22.57;;;1.80;99.90;;;;;;4937392;29;20226;-69
2022/12/15 15:48:57;;;;;;;33.63;23.00;;;1.90;99.90;;;;;;4937195;29;20196;-71
2022/12/15 15:51:25;;;;;;;36.77;24.57;;;1.90;99.90;;;;;;4936275;29;20216;-68
2022/12/15 15:53:53;;;;;;;34.67;22.50;;;1.80;99.90;;;;;;4927569;29;20232;-70
2022/12/15 15:56:20;;;;;;;38.43;24.83;;;1.80;99.90;;;;;;4927754;29;20217;-72
2022/12/15 15:58:47;;;;;;;38.20;24.00;;;1.80;99.90;;;;;;4921340;29;20229;-68
2022/12/15 16:01:14;;;;;;;41.13;25.03;;;1.80;99.90;;;;;;4945474;29;20200;-70
2022/12/15 16:03:42;;;;;;;37.73;24.90;;;1.90;99.90;;;;;;4956299;29;20582;-69
2022/12/15 16:06:16;;;;;;;44.10;27.13;;;1.90;99.90;;;;;;4940338;29;20303;-69
2022/12/15 16:08:44;;;;;;;35.07;23.70;;;1.90;99.90;;;;;;4931313;29;20213;-70
2022/12/15 16:11:11;;;;;;;43.77;25.50;;;1.90;99.90;;;;;;4917850;29;20220;-72
2022/12/15 16:13:39;;;;;;;42.73;26.13;;;1.90;99.90;;;;;;4917530;29;20226;-71
2022/12/15 16:16:06;;;;;;;38.57;23.50;;;1.90;99.90;;;;;;4917433;29;20221;-70
2022/12/15 16:18:33;;;;;;;43.63;26.43;;;1.90;99.90;;;;;;4951927;29;20576;-69
2022/12/15 16:21:01;;;;;;;41.03;25.30;;;1.90;99.90;;;;;;4955455;29;20227;-70
2022/12/15 16:23:29;;;;;;;42.07;24.33;;;1.90;99.90;;;;;;4955671;29;20628;-70
2022/12/15 16:25:58;;;;;;;44.27;26.23;;;1.90;99.90;;;;;;4947738;29;20213;-69
2022/12/15 16:28:27;;;;;;;38.80;24.10;;;1.90;99.90;;;;;;4936741;29;20277;-70
2022/12/15 16:30:57;;;;;;;40.83;25.20;;;1.80;99.90;;;;;;4936076;29;20194;-67
2022/12/15 16:33:24;;;;;;;38.83;25.30;;;1.90;99.90;;;;;;4936291;29;20241;-67
2022/12/15 16:35:51;;;;;;;41.63;24.83;;;1.90;99.90;;;;;;4935799;29;20213;-67
2022/12/15 16:38:25;;;;;;;42.20;25.70;;;2.00;99.90;;;;;;4937309;29;20221;-67
2022/12/15 16:40:53;;;;;;;41.80;25.60;;;2.00;99.90;;;;;;4936098;29;20235;-69
2022/12/15 16:43:22;;;;;;;54.40;34.87;;;2.00;99.90;;;;;;4936086;29;20205;-69
2022/12/15 16:45:50;;;;;;;39.97;25.87;;;2.00;99.90;;;;;;4935996;29;20217;-67
2022/12/15 16:48:18;;;;;;;39.03;24.37;;;2.00;99.90;;;;;;4930271;29;20587;-68
2022/12/15 16:50:49;;;;;;;38.90;24.80;;;2.00;99.90;;;;;;4933745;29;20209;-67
2022/12/15 16:53:17;;;;;;;37.87;23.40;;;2.00;99.90;;;;;;4936065;29;20266;-66
2022/12/15 16:55:46;;;;;;;42.73;25.53;;;2.00;99.90;;;;;;4939801;29;20209;-68
2022/12/15 16:58:15;;;;;;;38.80;23.53;;;2.10;99.90;;;;;;4950238;29;20688;-71
2022/12/15 17:00:43;;;;;;;41.23;24.40;;;2.10;99.90;;;;;;4950120;29;20297;-70
2022/12/15 17:03:13;;;;;;;41.23;24.83;;;2.10;99.90;;;;;;4937294;29;20224;-70
2022/12/15 17:05:42;;;;;;;47.70;27.97;;;2.10;99.90;;;;;;4936805;29;20208;-70
2022/12/15 17:08:17;;;;;;;37.20;23.93;;;2.10;99.90;;;;;;4949815;29;20239;-67
2022/12/15 17:10:46;;;;;;;38.17;24.50;;;2.10;99.90;;;;;;4939443;29;20688;-69
2022/12/15 17:13:21;;;;;;;36.97;23.57;;;2.20;99.90;;;;;;4937396;29;20208;-68
2022/12/15 17:15:48;;;;;;;40.73;23.20;;;2.20;99.90;;;;;;4935717;29;20206;-68
2022/12/15 17:18:15;;;;;;;34.50;21.57;;;2.20;99.90;;;;;;4935477;29;20204;-66
2022/12/15 17:20:42;;;;;;;37.57;24.00;;;2.20;99.90;;;;;;4936138;29;20644;-66
2022/12/15 17:23:15;;;;;;;39.93;24.33;;;2.20;99.90;;;;;;4936122;29;20212;-69
2022/12/15 17:25:45;;;;;;;38.77;22.70;;;2.30;99.90;;;;;;4935911;29;20193;-70
2022/12/15 17:28:15;;;;;;;41.10;25.23;;;2.30;99.90;;;;;;4935532;29;20213;-68
2022/12/15 17:30:42;;;;;;;81.93;49.40;;;2.20;99.90;;;;;;4935430;29;20229;-68
2022/12/15 17:33:20;;;;;;;44.03;25.33;;;2.20;99.90;;;;;;4935661;29;20211;-68
2022/12/15 17:35:48;;;;;;;42.90;24.87;;;2.20;99.90;;;;;;4935888;29;20292;-69
2022/12/15 17:38:17;;;;;;;45.90;25.13;;;2.20;99.90;;;;;;4935251;29;20205;-69
2022/12/15 17:40:46;;;;;;;45.20;24.27;;;2.20;99.90;;;;;;4935162;29;20217;-68
2022/12/15 17:43:14;;;;;;;46.17;24.33;;;2.20;99.90;;;;;;4917195;29;20262;-69
2022/12/15 17:45:41;;;;;;;39.33;23.23;;;2.20;99.90;;;;;;4919300;29;20213;-68
2022/12/15 17:48:08;;;;;;;48.70;25.83;;;2.20;99.90;;;;;;4929031;29;20226;-68
2022/12/15 17:50:35;;;;;;;57.93;30.10;;;2.20;99.90;;;;;;4932407;29;20212;-67
2022/12/15 17:53:04;;;;;;;48.83;27.07;;;2.20;99.90;;;;;;4933812;29;20209;-68
2022/12/15 17:55:32;;;;;;;50.83;28.87;;;2.30;99.90;;;;;;4933977;29;20258;-69
2022/12/15 17:58:00;;;;;;;46.03;26.67;;;2.20;99.90;;;;;;4934438;29;20654;-69
2022/12/15 18:00:29;;;;;;;50.00;27.13;;;2.20;99.90;;;;;;4915922;29;20210;-67
2022/12/15 18:02:56;;;;;;;45.80;26.53;;;2.20;99.90;;;;;;4930591;29;20207;-67
2022/12/15 18:05:26;;;;;;;52.73;28.83;;;2.30;99.90;;;;;;4934572;29;20209;-68
